sensor_id;sensor_type;location;lat;lon;timestamp;P1;durP1;ratioP1;P2;durP2;ratioP2
65759;SDS011;52496;51.082;5.066;2023-06-04T00:02:15;2.97;;;1.70;;
65759;SDS011;52496;51.082;5.066;2023-06-04T00:04:46;3.42;;;1.95;;
65759;SDS011;52496;51.082;5.066;2023-06-04T00:07:16;2.90;;;1.60;;
65759;SDS011;52496;51.082;5.066;2023-06-04T00:09:47;3.17;;;1.70;;
65759;SDS011;52496;51.082;5.066;2023-06-04T00:12:17;4.40;;;2.00;;
65759;SDS011;52496;51.082;5.066;2023-06-04T00:14:48;4.22;;;2.05;;
65759;SDS011;52496;51.082;5.066;2023-06-04T00:17:18;5.38;;;2.20;;
65759;SDS011;52496;51.082;5.066;2023-06-04T00:19:49;5.63;;;2.08;;
65759;SDS011;52496;51.082;5.066;2023-06-04T00:22:20;13.52;;;2.63;;
65759;SDS011;52496;51.082;5.066;2023-06-04T00:24:50;4.40;;;1.85;;
65759;SDS011;52496;51.082;5.066;2023-06-04T00:27:21;4.68;;;2.13;;
65759;SDS011;52496;51.082;5.066;2023-06-04T00:29:51;5.60;;;2.40;;
65759;SDS011;52496;51.082;5.066;2023-06-04T00:32:22;4.60;;;2.20;;
65759;SDS011;52496;51.082;5.066;2023-06-04T00:34:53;4.13;;;2.13;;
65759;SDS011;52496;51.082;5.066;2023-06-04T00:37:25;5.57;;;2.40;;
65759;SDS011;52496;51.082;5.066;2023-06-04T00:39:55;4.18;;;2.13;;
65759;SDS011;52496;51.082;5.066;2023-06-04T00:42:26;3.28;;;1.85;;
65759;SDS011;52496;51.082;5.066;2023-06-04T00:44:57;6.30;;;2.20;;
65759;SDS011;52496;51.082;5.066;2023-06-04T00:47:28;4.88;;;2.10;;
65759;SDS011;52496;51.082;5.066;2023-06-04T00:49:58;4.57;;;2.15;;
65759;SDS011;52496;51.082;5.066;2023-06-04T00:52:29;7.07;;;2.30;;
65759;SDS011;52496;51.082;5.066;2023-06-04T00:55:00;4.63;;;2.20;;
65759;SDS011;52496;51.082;5.066;2023-06-04T00:57:32;5.00;;;2.33;;
65759;SDS011;52496;51.082;5.066;2023-06-04T01:00:02;4.43;;;2.20;;
65759;SDS011;52496;51.082;5.066;2023-06-04T01:02:35;4.43;;;2.22;;
65759;SDS011;52496;51.082;5.066;2023-06-04T01:05:20;4.80;;;2.40;;
65759;SDS011;52496;51.082;5.066;2023-06-04T01:07:59;4.38;;;2.42;;
65759;SDS011;52496;51.082;5.066;2023-06-04T01:10:29;4.05;;;2.17;;
65759;SDS011;52496;51.082;5.066;2023-06-04T01:12:59;5.28;;;2.47;;
65759;SDS011;52496;51.082;5.066;2023-06-04T01:15:30;5.75;;;2.45;;
65759;SDS011;52496;51.082;5.066;2023-06-04T01:18:00;4.60;;;2.50;;
65759;SDS011;52496;51.082;5.066;2023-06-04T01:26:12;4.93;;;2.72;;
65759;SDS011;52496;51.082;5.066;2023-06-04T01:28:43;5.07;;;2.70;;
65759;SDS011;52496;51.082;5.066;2023-06-04T01:31:15;5.28;;;2.63;;
65759;SDS011;52496;51.082;5.066;2023-06-04T01:33:46;4.88;;;2.35;;
65759;SDS011;52496;51.082;5.066;2023-06-04T01:36:17;8.60;;;3.08;;
65759;SDS011;52496;51.082;5.066;2023-06-04T01:38:47;4.88;;;2.50;;
65759;SDS011;52496;51.082;5.066;2023-06-04T01:41:18;5.30;;;2.55;;
65759;SDS011;52496;51.082;5.066;2023-06-04T01:43:48;6.07;;;2.50;;
65759;SDS011;52496;51.082;5.066;2023-06-04T01:46:18;4.53;;;2.40;;
65759;SDS011;52496;51.082;5.066;2023-06-04T01:48:49;7.00;;;2.58;;
65759;SDS011;52496;51.082;5.066;2023-06-04T01:51:19;6.60;;;2.70;;
65759;SDS011;52496;51.082;5.066;2023-06-04T01:53:50;6.10;;;2.90;;
65759;SDS011;52496;51.082;5.066;2023-06-04T01:56:20;4.95;;;2.63;;
65759;SDS011;52496;51.082;5.066;2023-06-04T01:58:51;5.47;;;2.95;;
65759;SDS011;52496;51.082;5.066;2023-06-04T02:01:22;5.45;;;2.50;;
65759;SDS011;52496;51.082;5.066;2023-06-04T02:03:52;4.85;;;2.55;;
65759;SDS011;52496;51.082;5.066;2023-06-04T02:06:23;5.50;;;2.63;;
65759;SDS011;52496;51.082;5.066;2023-06-04T02:08:54;4.93;;;2.83;;
65759;SDS011;52496;51.082;5.066;2023-06-04T02:11:26;7.50;;;2.80;;
65759;SDS011;52496;51.082;5.066;2023-06-04T02:13:56;5.47;;;2.92;;
65759;SDS011;52496;51.082;5.066;2023-06-04T02:16:27;8.77;;;3.90;;
65759;SDS011;52496;51.082;5.066;2023-06-04T02:18:57;6.55;;;2.72;;
65759;SDS011;52496;51.082;5.066;2023-06-04T02:21:29;5.75;;;2.60;;
65759;SDS011;52496;51.082;5.066;2023-06-04T02:23:59;5.40;;;2.60;;
65759;SDS011;52496;51.082;5.066;2023-06-04T02:26:30;5.65;;;2.67;;
65759;SDS011;52496;51.082;5.066;2023-06-04T02:29:01;10.10;;;2.95;;
65759;SDS011;52496;51.082;5.066;2023-06-04T02:31:32;5.00;;;2.70;;
65759;SDS011;52496;51.082;5.066;2023-06-04T02:34:02;4.50;;;2.50;;
65759;SDS011;52496;51.082;5.066;2023-06-04T02:36:33;8.45;;;3.00;;
65759;SDS011;52496;51.082;5.066;2023-06-04T02:39:04;6.90;;;2.60;;
65759;SDS011;52496;51.082;5.066;2023-06-04T02:41:34;9.60;;;3.92;;
65759;SDS011;52496;51.082;5.066;2023-06-04T02:44:06;5.38;;;2.63;;
65759;SDS011;52496;51.082;5.066;2023-06-04T02:46:36;7.15;;;2.70;;
65759;SDS011;52496;51.082;5.066;2023-06-04T02:49:07;5.25;;;2.35;;
65759;SDS011;52496;51.082;5.066;2023-06-04T02:51:37;5.57;;;2.75;;
65759;SDS011;52496;51.082;5.066;2023-06-04T02:54:08;5.20;;;2.90;;
65759;SDS011;52496;51.082;5.066;2023-06-04T02:56:39;6.35;;;2.70;;
65759;SDS011;52496;51.082;5.066;2023-06-04T02:59:10;5.15;;;2.50;;
65759;SDS011;52496;51.082;5.066;2023-06-04T03:01:41;6.35;;;2.42;;
65759;SDS011;52496;51.082;5.066;2023-06-04T03:04:11;4.68;;;2.60;;
65759;SDS011;52496;51.082;5.066;2023-06-04T03:06:45;6.97;;;2.60;;
65759;SDS011;52496;51.082;5.066;2023-06-04T03:09:16;6.50;;;2.90;;
65759;SDS011;52496;51.082;5.066;2023-06-04T03:11:46;5.45;;;2.63;;
65759;SDS011;52496;51.082;5.066;2023-06-04T03:14:17;9.30;;;2.80;;
65759;SDS011;52496;51.082;5.066;2023-06-04T03:16:48;6.57;;;3.03;;
65759;SDS011;52496;51.082;5.066;2023-06-04T03:19:19;7.22;;;2.88;;
65759;SDS011;52496;51.082;5.066;2023-06-04T03:21:49;6.45;;;2.70;;
65759;SDS011;52496;51.082;5.066;2023-06-04T03:24:20;4.85;;;2.60;;
65759;SDS011;52496;51.082;5.066;2023-06-04T03:26:51;5.07;;;2.75;;
65759;SDS011;52496;51.082;5.066;2023-06-04T03:29:21;4.93;;;2.50;;
65759;SDS011;52496;51.082;5.066;2023-06-04T03:31:52;4.35;;;2.20;;
65759;SDS011;52496;51.082;5.066;2023-06-04T03:34:22;6.13;;;2.70;;
65759;SDS011;52496;51.082;5.066;2023-06-04T03:36:55;5.53;;;2.60;;
65759;SDS011;52496;51.082;5.066;2023-06-04T03:39:26;5.05;;;2.55;;
65759;SDS011;52496;51.082;5.066;2023-06-04T03:41:56;8.73;;;2.33;;
65759;SDS011;52496;51.082;5.066;2023-06-04T03:44:27;7.30;;;2.47;;
65759;SDS011;52496;51.082;5.066;2023-06-04T03:46:58;4.75;;;2.70;;
65759;SDS011;52496;51.082;5.066;2023-06-04T03:49:28;5.05;;;2.33;;
65759;SDS011;52496;51.082;5.066;2023-06-04T03:51:59;4.78;;;2.53;;
65759;SDS011;52496;51.082;5.066;2023-06-04T03:54:29;4.18;;;2.25;;
65759;SDS011;52496;51.082;5.066;2023-06-04T03:57:00;9.15;;;2.83;;
65759;SDS011;52496;51.082;5.066;2023-06-04T03:59:32;4.15;;;2.47;;
65759;SDS011;52496;51.082;5.066;2023-06-04T04:02:03;6.75;;;2.90;;
65759;SDS011;52496;51.082;5.066;2023-06-04T04:04:35;7.75;;;2.70;;
65759;SDS011;52496;51.082;5.066;2023-06-04T04:07:05;4.90;;;2.30;;
65759;SDS011;52496;51.082;5.066;2023-06-04T04:09:36;4.78;;;2.58;;
65759;SDS011;52496;51.082;5.066;2023-06-04T04:12:07;4.93;;;2.55;;
65759;SDS011;52496;51.082;5.066;2023-06-04T04:14:37;10.40;;;2.90;;
65759;SDS011;52496;51.082;5.066;2023-06-04T04:17:08;5.15;;;2.60;;
65759;SDS011;52496;51.082;5.066;2023-06-04T04:19:38;4.13;;;2.40;;
65759;SDS011;52496;51.082;5.066;2023-06-04T04:22:12;6.72;;;2.80;;
65759;SDS011;52496;51.082;5.066;2023-06-04T04:24:43;4.18;;;2.30;;
65759;SDS011;52496;51.082;5.066;2023-06-04T04:27:14;7.10;;;2.65;;
65759;SDS011;52496;51.082;5.066;2023-06-04T04:29:45;4.40;;;2.20;;
65759;SDS011;52496;51.082;5.066;2023-06-04T04:32:17;6.55;;;2.58;;
65759;SDS011;52496;51.082;5.066;2023-06-04T04:34:51;6.43;;;2.47;;
65759;SDS011;52496;51.082;5.066;2023-06-04T04:37:23;9.82;;;3.17;;
65759;SDS011;52496;51.082;5.066;2023-06-04T04:39:54;5.07;;;2.58;;
65759;SDS011;52496;51.082;5.066;2023-06-04T04:42:25;7.57;;;2.70;;
65759;SDS011;52496;51.082;5.066;2023-06-04T04:44:55;5.32;;;2.42;;
65759;SDS011;52496;51.082;5.066;2023-06-04T04:47:25;7.47;;;3.15;;
65759;SDS011;52496;51.082;5.066;2023-06-04T04:49:56;8.35;;;2.95;;
65759;SDS011;52496;51.082;5.066;2023-06-04T04:52:26;5.68;;;2.90;;
65759;SDS011;52496;51.082;5.066;2023-06-04T04:54:57;4.88;;;2.35;;
65759;SDS011;52496;51.082;5.066;2023-06-04T04:57:28;5.82;;;3.58;;
65759;SDS011;52496;51.082;5.066;2023-06-04T04:59:58;5.30;;;2.70;;
65759;SDS011;52496;51.082;5.066;2023-06-04T05:02:29;7.22;;;2.85;;
65759;SDS011;52496;51.082;5.066;2023-06-04T05:04:59;5.35;;;2.80;;
65759;SDS011;52496;51.082;5.066;2023-06-04T05:07:30;4.93;;;2.83;;
65759;SDS011;52496;51.082;5.066;2023-06-04T05:10:00;5.32;;;2.63;;
65759;SDS011;52496;51.082;5.066;2023-06-04T05:12:31;7.00;;;2.90;;
65759;SDS011;52496;51.082;5.066;2023-06-04T05:15:02;4.88;;;2.60;;
65759;SDS011;52496;51.082;5.066;2023-06-04T05:17:33;7.05;;;2.90;;
65759;SDS011;52496;51.082;5.066;2023-06-04T05:20:05;5.75;;;2.78;;
65759;SDS011;52496;51.082;5.066;2023-06-04T05:22:36;6.65;;;2.97;;
65759;SDS011;52496;51.082;5.066;2023-06-04T05:25:08;4.93;;;2.75;;
65759;SDS011;52496;51.082;5.066;2023-06-04T05:27:39;8.77;;;3.10;;
65759;SDS011;52496;51.082;5.066;2023-06-04T05:30:10;6.57;;;2.50;;
65759;SDS011;52496;51.082;5.066;2023-06-04T05:32:41;6.13;;;2.70;;
65759;SDS011;52496;51.082;5.066;2023-06-04T05:35:11;6.25;;;2.88;;
65759;SDS011;52496;51.082;5.066;2023-06-04T05:37:42;5.35;;;2.80;;
65759;SDS011;52496;51.082;5.066;2023-06-04T05:40:15;5.20;;;3.22;;
65759;SDS011;52496;51.082;5.066;2023-06-04T05:42:47;5.90;;;2.67;;
65759;SDS011;52496;51.082;5.066;2023-06-04T05:45:19;5.28;;;2.80;;
65759;SDS011;52496;51.082;5.066;2023-06-04T05:47:50;7.78;;;3.15;;
65759;SDS011;52496;51.082;5.066;2023-06-04T05:50:24;6.10;;;3.05;;
65759;SDS011;52496;51.082;5.066;2023-06-04T05:52:54;5.63;;;2.75;;
65759;SDS011;52496;51.082;5.066;2023-06-04T05:55:25;5.15;;;2.85;;
65759;SDS011;52496;51.082;5.066;2023-06-04T05:57:55;8.52;;;3.00;;
65759;SDS011;52496;51.082;5.066;2023-06-04T06:00:26;5.90;;;2.60;;
65759;SDS011;52496;51.082;5.066;2023-06-04T06:02:57;7.55;;;2.90;;
65759;SDS011;52496;51.082;5.066;2023-06-04T06:05:28;7.53;;;3.03;;
65759;SDS011;52496;51.082;5.066;2023-06-04T06:07:58;5.93;;;2.72;;
65759;SDS011;52496;51.082;5.066;2023-06-04T06:10:29;6.80;;;2.78;;
65759;SDS011;52496;51.082;5.066;2023-06-04T06:12:59;5.95;;;3.25;;
65759;SDS011;52496;51.082;5.066;2023-06-04T06:15:32;6.78;;;3.20;;
65759;SDS011;52496;51.082;5.066;2023-06-04T06:18:03;7.25;;;2.90;;
65759;SDS011;52496;51.082;5.066;2023-06-04T06:20:34;6.88;;;2.78;;
65759;SDS011;52496;51.082;5.066;2023-06-04T06:23:05;5.55;;;2.80;;
65759;SDS011;52496;51.082;5.066;2023-06-04T06:25:36;7.35;;;3.33;;
65759;SDS011;52496;51.082;5.066;2023-06-04T06:28:07;5.50;;;2.83;;
65759;SDS011;52496;51.082;5.066;2023-06-04T06:30:37;4.55;;;2.58;;
65759;SDS011;52496;51.082;5.066;2023-06-04T06:33:08;5.53;;;2.83;;
65759;SDS011;52496;51.082;5.066;2023-06-04T06:35:38;6.88;;;2.90;;
65759;SDS011;52496;51.082;5.066;2023-06-04T06:38:09;7.75;;;2.65;;
65759;SDS011;52496;51.082;5.066;2023-06-04T06:40:40;7.18;;;3.10;;
65759;SDS011;52496;51.082;5.066;2023-06-04T06:43:11;6.43;;;3.13;;
65759;SDS011;52496;51.082;5.066;2023-06-04T06:45:41;7.85;;;2.85;;
65759;SDS011;52496;51.082;5.066;2023-06-04T06:48:12;4.40;;;2.33;;
65759;SDS011;52496;51.082;5.066;2023-06-04T06:50:42;5.50;;;2.65;;
65759;SDS011;52496;51.082;5.066;2023-06-04T06:53:13;7.90;;;3.03;;
65759;SDS011;52496;51.082;5.066;2023-06-04T06:55:44;12.38;;;2.90;;
65759;SDS011;52496;51.082;5.066;2023-06-04T06:58:14;6.05;;;2.97;;
65759;SDS011;52496;51.082;5.066;2023-06-04T07:00:45;4.22;;;2.47;;
65759;SDS011;52496;51.082;5.066;2023-06-04T07:03:15;7.32;;;2.97;;
65759;SDS011;52496;51.082;5.066;2023-06-04T07:05:46;6.13;;;2.30;;
65759;SDS011;52496;51.082;5.066;2023-06-04T07:08:17;7.97;;;2.70;;
65759;SDS011;52496;51.082;5.066;2023-06-04T07:10:47;4.22;;;2.20;;
65759;SDS011;52496;51.082;5.066;2023-06-04T07:13:18;6.65;;;2.58;;
65759;SDS011;52496;51.082;5.066;2023-06-04T07:15:48;5.20;;;2.50;;
65759;SDS011;52496;51.082;5.066;2023-06-04T07:18:20;6.40;;;3.33;;
65759;SDS011;52496;51.082;5.066;2023-06-04T07:20:50;4.82;;;2.60;;
65759;SDS011;52496;51.082;5.066;2023-06-04T07:23:22;4.20;;;2.20;;
65759;SDS011;52496;51.082;5.066;2023-06-04T07:25:53;4.45;;;2.58;;
65759;SDS011;52496;51.082;5.066;2023-06-04T07:28:24;5.78;;;2.53;;
65759;SDS011;52496;51.082;5.066;2023-06-04T07:30:54;5.32;;;2.15;;
65759;SDS011;52496;51.082;5.066;2023-06-04T07:33:25;6.22;;;2.42;;
65759;SDS011;52496;51.082;5.066;2023-06-04T07:35:56;4.80;;;2.35;;
65759;SDS011;52496;51.082;5.066;2023-06-04T07:38:26;4.47;;;2.25;;
65759;SDS011;52496;51.082;5.066;2023-06-04T07:40:57;6.53;;;2.53;;
65759;SDS011;52496;51.082;5.066;2023-06-04T07:43:27;3.78;;;2.25;;
65759;SDS011;52496;51.082;5.066;2023-06-04T07:45:58;4.30;;;2.28;;
65759;SDS011;52496;51.082;5.066;2023-06-04T07:48:28;5.13;;;2.38;;
65759;SDS011;52496;51.082;5.066;2023-06-04T07:51:01;3.30;;;2.03;;
65759;SDS011;52496;51.082;5.066;2023-06-04T07:53:33;4.22;;;2.10;;
65759;SDS011;52496;51.082;5.066;2023-06-04T07:56:05;7.95;;;2.00;;
65759;SDS011;52496;51.082;5.066;2023-06-04T07:58:36;3.78;;;2.17;;
65759;SDS011;52496;51.082;5.066;2023-06-04T08:01:06;5.57;;;2.53;;
65759;SDS011;52496;51.082;5.066;2023-06-04T08:03:37;4.30;;;2.13;;
65759;SDS011;52496;51.082;5.066;2023-06-04T08:06:09;7.07;;;2.03;;
65759;SDS011;52496;51.082;5.066;2023-06-04T08:08:44;4.25;;;2.33;;
65759;SDS011;52496;51.082;5.066;2023-06-04T08:11:15;6.38;;;2.30;;
65759;SDS011;52496;51.082;5.066;2023-06-04T08:13:46;4.00;;;2.25;;
65759;SDS011;52496;51.082;5.066;2023-06-04T08:16:16;5.25;;;2.10;;
65759;SDS011;52496;51.082;5.066;2023-06-04T08:18:47;7.30;;;2.47;;
65759;SDS011;52496;51.082;5.066;2023-06-04T08:21:27;4.63;;;2.40;;
65759;SDS011;52496;51.082;5.066;2023-06-04T08:23:58;5.07;;;2.30;;
65759;SDS011;52496;51.082;5.066;2023-06-04T08:26:30;4.30;;;2.05;;
65759;SDS011;52496;51.082;5.066;2023-06-04T08:29:02;4.93;;;2.10;;
65759;SDS011;52496;51.082;5.066;2023-06-04T08:31:34;4.72;;;2.20;;
65759;SDS011;52496;51.082;5.066;2023-06-04T08:34:05;4.80;;;2.20;;
65759;SDS011;52496;51.082;5.066;2023-06-04T08:36:35;4.03;;;2.03;;
65759;SDS011;52496;51.082;5.066;2023-06-04T08:39:06;4.93;;;2.13;;
65759;SDS011;52496;51.082;5.066;2023-06-04T08:41:55;4.72;;;2.20;;
65759;SDS011;52496;51.082;5.066;2023-06-04T08:44:29;6.22;;;2.08;;
65759;SDS011;52496;51.082;5.066;2023-06-04T08:47:05;9.27;;;2.55;;
65759;SDS011;52496;51.082;5.066;2023-06-04T08:49:36;8.30;;;2.38;;
65759;SDS011;52496;51.082;5.066;2023-06-04T08:52:07;7.10;;;2.47;;
65759;SDS011;52496;51.082;5.066;2023-06-04T08:54:37;4.53;;;2.15;;
65759;SDS011;52496;51.082;5.066;2023-06-04T08:57:08;3.90;;;2.03;;
65759;SDS011;52496;51.082;5.066;2023-06-04T08:59:39;10.18;;;2.42;;
65759;SDS011;52496;51.082;5.066;2023-06-04T09:02:09;4.32;;;2.20;;
65759;SDS011;52496;51.082;5.066;2023-06-04T09:04:41;3.85;;;1.85;;
65759;SDS011;52496;51.082;5.066;2023-06-04T09:07:13;4.93;;;2.08;;
65759;SDS011;52496;51.082;5.066;2023-06-04T09:09:45;5.63;;;1.80;;
65759;SDS011;52496;51.082;5.066;2023-06-04T09:12:20;4.55;;;2.00;;
65759;SDS011;52496;51.082;5.066;2023-06-04T09:14:53;5.57;;;2.10;;
65759;SDS011;52496;51.082;5.066;2023-06-04T09:17:24;4.80;;;2.20;;
65759;SDS011;52496;51.082;5.066;2023-06-04T09:19:55;5.53;;;2.17;;
65759;SDS011;52496;51.082;5.066;2023-06-04T09:22:35;5.68;;;2.20;;
65759;SDS011;52496;51.082;5.066;2023-06-04T09:25:06;6.47;;;2.00;;
65759;SDS011;52496;51.082;5.066;2023-06-04T09:27:48;5.45;;;1.98;;
65759;SDS011;52496;51.082;5.066;2023-06-04T09:30:20;5.65;;;2.45;;
65759;SDS011;52496;51.082;5.066;2023-06-04T09:32:50;15.52;;;2.72;;
65759;SDS011;52496;51.082;5.066;2023-06-04T09:35:23;3.55;;;1.80;;
65759;SDS011;52496;51.082;5.066;2023-06-04T09:37:54;4.47;;;2.13;;
65759;SDS011;52496;51.082;5.066;2023-06-04T09:40:34;5.93;;;2.10;;
65759;SDS011;52496;51.082;5.066;2023-06-04T09:43:08;5.38;;;2.00;;
65759;SDS011;52496;51.082;5.066;2023-06-04T09:45:40;3.90;;;1.90;;
65759;SDS011;52496;51.082;5.066;2023-06-04T09:48:18;7.00;;;2.30;;
65759;SDS011;52496;51.082;5.066;2023-06-04T09:50:51;3.92;;;2.00;;
65759;SDS011;52496;51.082;5.066;2023-06-04T09:53:21;5.15;;;1.90;;
65759;SDS011;52496;51.082;5.066;2023-06-04T09:55:56;6.80;;;2.15;;
65759;SDS011;52496;51.082;5.066;2023-06-04T09:58:28;3.17;;;1.80;;
65759;SDS011;52496;51.082;5.066;2023-06-04T10:01:01;6.90;;;2.38;;
65759;SDS011;52496;51.082;5.066;2023-06-04T10:03:39;4.15;;;1.90;;
65759;SDS011;52496;51.082;5.066;2023-06-04T10:06:16;4.63;;;2.03;;
65759;SDS011;52496;51.082;5.066;2023-06-04T10:08:50;3.50;;;1.85;;
65759;SDS011;52496;51.082;5.066;2023-06-04T10:11:24;7.78;;;2.13;;
65759;SDS011;52496;51.082;5.066;2023-06-04T10:14:03;3.08;;;1.80;;
65759;SDS011;52496;51.082;5.066;2023-06-04T10:16:38;6.18;;;2.70;;
65759;SDS011;52496;51.082;5.066;2023-06-04T10:19:11;5.75;;;1.95;;
65759;SDS011;52496;51.082;5.066;2023-06-04T10:21:43;3.45;;;1.90;;
65759;SDS011;52496;51.082;5.066;2023-06-04T10:24:14;4.45;;;2.40;;
65759;SDS011;52496;51.082;5.066;2023-06-04T10:26:44;5.00;;;2.33;;
65759;SDS011;52496;51.082;5.066;2023-06-04T10:29:15;5.20;;;2.00;;
65759;SDS011;52496;51.082;5.066;2023-06-04T10:31:47;4.45;;;2.03;;
65759;SDS011;52496;51.082;5.066;2023-06-04T10:34:17;10.15;;;1.95;;
65759;SDS011;52496;51.082;5.066;2023-06-04T10:36:48;3.33;;;2.05;;
65759;SDS011;52496;51.082;5.066;2023-06-04T10:39:25;3.75;;;1.95;;
65759;SDS011;52496;51.082;5.066;2023-06-04T10:42:00;5.22;;;1.85;;
65759;SDS011;52496;51.082;5.066;2023-06-04T10:44:43;5.50;;;2.15;;
65759;SDS011;52496;51.082;5.066;2023-06-04T10:47:18;6.90;;;2.17;;
65759;SDS011;52496;51.082;5.066;2023-06-04T10:49:53;3.53;;;1.92;;
65759;SDS011;52496;51.082;5.066;2023-06-04T10:52:24;5.18;;;1.70;;
65759;SDS011;52496;51.082;5.066;2023-06-04T10:55:02;3.55;;;1.80;;
65759;SDS011;52496;51.082;5.066;2023-06-04T10:57:33;3.72;;;1.98;;
65759;SDS011;52496;51.082;5.066;2023-06-04T11:00:05;3.42;;;1.80;;
65759;SDS011;52496;51.082;5.066;2023-06-04T11:02:49;4.75;;;2.15;;
65759;SDS011;52496;51.082;5.066;2023-06-04T11:05:38;3.08;;;1.77;;
65759;SDS011;52496;51.082;5.066;2023-06-04T11:08:11;4.40;;;1.80;;
65759;SDS011;52496;51.082;5.066;2023-06-04T11:10:46;4.28;;;1.70;;
65759;SDS011;52496;51.082;5.066;2023-06-04T11:13:22;6.10;;;2.22;;
65759;SDS011;52496;51.082;5.066;2023-06-04T11:15:54;3.53;;;1.70;;
65759;SDS011;52496;51.082;5.066;2023-06-04T11:18:28;4.05;;;1.98;;
65759;SDS011;52496;51.082;5.066;2023-06-04T11:20:59;5.43;;;1.83;;
65759;SDS011;52496;51.082;5.066;2023-06-04T11:23:32;7.32;;;1.77;;
65759;SDS011;52496;51.082;5.066;2023-06-04T11:26:03;3.53;;;1.63;;
65759;SDS011;52496;51.082;5.066;2023-06-04T11:28:34;4.82;;;1.92;;
65759;SDS011;52496;51.082;5.066;2023-06-04T11:31:04;6.50;;;1.95;;
65759;SDS011;52496;51.082;5.066;2023-06-04T11:33:44;4.10;;;1.98;;
65759;SDS011;52496;51.082;5.066;2023-06-04T11:36:36;4.63;;;2.33;;
65759;SDS011;52496;51.082;5.066;2023-06-04T11:39:06;2.97;;;1.65;;
65759;SDS011;52496;51.082;5.066;2023-06-04T11:41:37;4.53;;;1.83;;
65759;SDS011;52496;51.082;5.066;2023-06-04T11:44:08;5.00;;;1.95;;
65759;SDS011;52496;51.082;5.066;2023-06-04T11:46:43;3.80;;;1.70;;
65759;SDS011;52496;51.082;5.066;2023-06-04T11:49:17;4.30;;;1.73;;
65759;SDS011;52496;51.082;5.066;2023-06-04T11:51:50;3.90;;;1.60;;
65759;SDS011;52496;51.082;5.066;2023-06-04T11:54:21;4.82;;;1.90;;
65759;SDS011;52496;51.082;5.066;2023-06-04T11:56:54;3.45;;;1.88;;
65759;SDS011;52496;51.082;5.066;2023-06-04T11:59:24;4.53;;;1.50;;
65759;SDS011;52496;51.082;5.066;2023-06-04T12:01:55;5.40;;;1.98;;
65759;SDS011;52496;51.082;5.066;2023-06-04T12:04:29;3.58;;;1.88;;
65759;SDS011;52496;51.082;5.066;2023-06-04T12:07:01;4.22;;;1.80;;
65759;SDS011;52496;51.082;5.066;2023-06-04T12:09:34;2.97;;;1.77;;
65759;SDS011;52496;51.082;5.066;2023-06-04T12:12:06;4.68;;;1.65;;
65759;SDS011;52496;51.082;5.066;2023-06-04T12:14:40;5.30;;;1.75;;
65759;SDS011;52496;51.082;5.066;2023-06-04T12:17:13;4.80;;;1.75;;
65759;SDS011;52496;51.082;5.066;2023-06-04T12:19:47;3.53;;;1.60;;
65759;SDS011;52496;51.082;5.066;2023-06-04T12:22:18;3.80;;;1.85;;
65759;SDS011;52496;51.082;5.066;2023-06-04T12:24:56;4.32;;;1.67;;
65759;SDS011;52496;51.082;5.066;2023-06-04T12:27:28;2.75;;;1.60;;
65759;SDS011;52496;51.082;5.066;2023-06-04T12:32:36;3.42;;;1.77;;
65759;SDS011;52496;51.082;5.066;2023-06-04T12:35:06;3.40;;;1.63;;
65759;SDS011;52496;51.082;5.066;2023-06-04T12:37:37;4.72;;;1.70;;
65759;SDS011;52496;51.082;5.066;2023-06-04T12:40:08;3.28;;;1.80;;
65759;SDS011;52496;51.082;5.066;2023-06-04T12:42:39;3.35;;;1.65;;
65759;SDS011;52496;51.082;5.066;2023-06-04T12:45:10;5.03;;;2.03;;
65759;SDS011;52496;51.082;5.066;2023-06-04T12:47:42;5.15;;;2.00;;
65759;SDS011;52496;51.082;5.066;2023-06-04T12:50:13;7.43;;;2.03;;
65759;SDS011;52496;51.082;5.066;2023-06-04T12:52:44;3.97;;;2.00;;
65759;SDS011;52496;51.082;5.066;2023-06-04T12:55:14;2.97;;;1.70;;
65759;SDS011;52496;51.082;5.066;2023-06-04T12:57:45;3.22;;;1.60;;
65759;SDS011;52496;51.082;5.066;2023-06-04T13:00:16;3.58;;;1.90;;
65759;SDS011;52496;51.082;5.066;2023-06-04T13:02:47;3.40;;;1.60;;
65759;SDS011;52496;51.082;5.066;2023-06-04T13:05:17;6.70;;;1.88;;
65759;SDS011;52496;51.082;5.066;2023-06-04T13:07:48;3.55;;;1.60;;
65759;SDS011;52496;51.082;5.066;2023-06-04T13:10:18;4.03;;;1.60;;
65759;SDS011;52496;51.082;5.066;2023-06-04T13:12:49;4.55;;;1.90;;
65759;SDS011;52496;51.082;5.066;2023-06-04T13:15:19;3.50;;;2.00;;
65759;SDS011;52496;51.082;5.066;2023-06-04T13:17:50;2.80;;;1.50;;
65759;SDS011;52496;51.082;5.066;2023-06-04T13:20:21;2.75;;;1.60;;
65759;SDS011;52496;51.082;5.066;2023-06-04T13:22:51;3.83;;;1.85;;
65759;SDS011;52496;51.082;5.066;2023-06-04T13:25:22;3.70;;;1.67;;
65759;SDS011;52496;51.082;5.066;2023-06-04T13:27:52;3.20;;;1.67;;
65759;SDS011;52496;51.082;5.066;2023-06-04T13:30:23;4.75;;;1.75;;
65759;SDS011;52496;51.082;5.066;2023-06-04T13:32:54;3.40;;;1.55;;
65759;SDS011;52496;51.082;5.066;2023-06-04T13:35:24;4.20;;;1.70;;
65759;SDS011;52496;51.082;5.066;2023-06-04T13:37:55;3.88;;;2.10;;
65759;SDS011;52496;51.082;5.066;2023-06-04T13:40:26;4.30;;;1.70;;
65759;SDS011;52496;51.082;5.066;2023-06-04T13:42:56;2.90;;;1.40;;
65759;SDS011;52496;51.082;5.066;2023-06-04T13:45:26;3.22;;;1.75;;
65759;SDS011;52496;51.082;5.066;2023-06-04T13:47:57;2.25;;;1.60;;
65759;SDS011;52496;51.082;5.066;2023-06-04T13:50:32;5.13;;;1.90;;
65759;SDS011;52496;51.082;5.066;2023-06-04T13:53:03;3.13;;;1.90;;
65759;SDS011;52496;51.082;5.066;2023-06-04T13:55:34;4.60;;;1.75;;
65759;SDS011;52496;51.082;5.066;2023-06-04T13:58:05;4.53;;;2.00;;
65759;SDS011;52496;51.082;5.066;2023-06-04T14:00:35;3.80;;;1.50;;
65759;SDS011;52496;51.082;5.066;2023-06-04T14:03:06;5.50;;;1.98;;
65759;SDS011;52496;51.082;5.066;2023-06-04T14:05:36;4.20;;;1.70;;
65759;SDS011;52496;51.082;5.066;2023-06-04T14:08:07;3.58;;;1.50;;
65759;SDS011;52496;51.082;5.066;2023-06-04T14:10:38;5.57;;;1.80;;
65759;SDS011;52496;51.082;5.066;2023-06-04T14:13:11;3.17;;;1.52;;
65759;SDS011;52496;51.082;5.066;2023-06-04T14:15:41;3.30;;;1.80;;
65759;SDS011;52496;51.082;5.066;2023-06-04T14:18:12;4.45;;;1.80;;
65759;SDS011;52496;51.082;5.066;2023-06-04T14:20:42;4.05;;;1.77;;
65759;SDS011;52496;51.082;5.066;2023-06-04T14:23:13;2.95;;;1.83;;
65759;SDS011;52496;51.082;5.066;2023-06-04T14:25:44;3.78;;;1.85;;
65759;SDS011;52496;51.082;5.066;2023-06-04T14:28:15;4.13;;;1.50;;
65759;SDS011;52496;51.082;5.066;2023-06-04T14:30:45;4.63;;;2.00;;
65759;SDS011;52496;51.082;5.066;2023-06-04T14:33:16;3.33;;;1.80;;
65759;SDS011;52496;51.082;5.066;2023-06-04T14:35:47;2.97;;;1.85;;
65759;SDS011;52496;51.082;5.066;2023-06-04T14:38:17;3.13;;;1.75;;
65759;SDS011;52496;51.082;5.066;2023-06-04T14:40:48;3.55;;;1.58;;
65759;SDS011;52496;51.082;5.066;2023-06-04T14:43:18;5.60;;;1.90;;
65759;SDS011;52496;51.082;5.066;2023-06-04T14:45:49;3.20;;;1.80;;
65759;SDS011;52496;51.082;5.066;2023-06-04T14:48:22;5.38;;;1.92;;
65759;SDS011;52496;51.082;5.066;2023-06-04T14:50:57;5.07;;;1.88;;
65759;SDS011;52496;51.082;5.066;2023-06-04T14:53:28;3.05;;;1.85;;
65759;SDS011;52496;51.082;5.066;2023-06-04T14:55:59;4.85;;;2.00;;
65759;SDS011;52496;51.082;5.066;2023-06-04T14:58:29;3.80;;;2.17;;
65759;SDS011;52496;51.082;5.066;2023-06-04T15:01:00;4.32;;;2.10;;
65759;SDS011;52496;51.082;5.066;2023-06-04T15:03:33;4.85;;;2.10;;
65759;SDS011;52496;51.082;5.066;2023-06-04T15:06:03;3.88;;;1.95;;
65759;SDS011;52496;51.082;5.066;2023-06-04T15:08:37;5.53;;;2.10;;
65759;SDS011;52496;51.082;5.066;2023-06-04T15:11:09;3.38;;;2.03;;
65759;SDS011;52496;51.082;5.066;2023-06-04T15:13:40;4.72;;;2.03;;
65759;SDS011;52496;51.082;5.066;2023-06-04T15:16:11;4.45;;;2.00;;
65759;SDS011;52496;51.082;5.066;2023-06-04T15:18:41;4.57;;;2.22;;
65759;SDS011;52496;51.082;5.066;2023-06-04T15:21:12;3.40;;;1.98;;
65759;SDS011;52496;51.082;5.066;2023-06-04T15:23:43;3.97;;;2.10;;